sensor_id;sensor_type;location;lat;lon;timestamp;pressure;altitude;pressure_sealevel;temperature;humidity
74778;BME280;63298;53.164;8.610;2023-03-23T00:02:14;100364.78;;;11.75;82.10
74778;BME280;63298;53.164;8.610;2023-03-23T00:04:39;100384.84;;;11.87;81.51
74778;BME280;63298;53.164;8.610;2023-03-23T00:07:05;100365.75;;;11.85;81.21
74778;BME280;63298;53.164;8.610;2023-03-23T00:09:30;100363.25;;;11.84;81.87
74778;BME280;63298;53.164;8.610;2023-03-23T00:11:55;100346.75;;;11.89;82.01
74778;BME280;63298;53.164;8.610;2023-03-23T00:14:21;100346.69;;;11.84;82.15
74778;BME280;63298;53.164;8.610;2023-03-23T00:16:46;100339.97;;;11.80;81.70
74778;BME280;63298;53.164;8.610;2023-03-23T00:19:13;100353.00;;;11.84;82.53
74778;BME280;63298;53.164;8.610;2023-03-23T00:21:40;100353.34;;;11.88;82.25
74778;BME280;63298;53.164;8.610;2023-03-23T00:24:09;100344.47;;;11.86;81.93
74778;BME280;63298;53.164;8.610;2023-03-23T00:26:37;100339.47;;;11.83;82.23
74778;BME280;63298;53.164;8.610;2023-03-23T00:29:04;100327.03;;;11.85;82.36
74778;BME280;63298;53.164;8.610;2023-03-23T00:31:30;100329.31;;;11.88;82.02
74778;BME280;63298;53.164;8.610;2023-03-23T00:33:56;100326.63;;;11.93;82.15
74778;BME280;63298;53.164;8.610;2023-03-23T00:36:21;100319.09;;;11.89;82.48
74778;BME280;63298;53.164;8.610;2023-03-23T00:38:46;100309.38;;;11.86;82.54
74778;BME280;63298;53.164;8.610;2023-03-23T00:41:12;100313.50;;;11.84;82.66
74778;BME280;63298;53.164;8.610;2023-03-23T00:43:37;100309.63;;;11.85;82.54
74778;BME280;63298;53.164;8.610;2023-03-23T00:46:03;100318.31;;;11.93;82.38
74778;BME280;63298;53.164;8.610;2023-03-23T00:48:29;100308.91;;;11.94;82.75
74778;BME280;63298;53.164;8.610;2023-03-23T00:50:54;100279.75;;;11.82;83.12
74778;BME280;63298;53.164;8.610;2023-03-23T00:53:20;100291.72;;;11.87;82.69
74778;BME280;63298;53.164;8.610;2023-03-23T00:55:46;100298.13;;;11.93;82.77
74778;BME280;63298;53.164;8.610;2023-03-23T00:58:13;100294.22;;;11.89;82.56
74778;BME280;63298;53.164;8.610;2023-03-23T01:00:39;100297.53;;;11.91;82.82
74778;BME280;63298;53.164;8.610;2023-03-23T01:03:06;100289.78;;;11.88;82.86
74778;BME280;63298;53.164;8.610;2023-03-23T01:05:36;100287.31;;;11.91;82.73
74778;BME280;63298;53.164;8.610;2023-03-23T01:08:03;100275.38;;;11.86;82.29
74778;BME280;63298;53.164;8.610;2023-03-23T01:10:29;100289.31;;;11.96;82.60
74778;BME280;63298;53.164;8.610;2023-03-23T01:12:54;100282.63;;;11.92;82.80
74778;BME280;63298;53.164;8.610;2023-03-23T01:15:20;100279.03;;;11.91;82.81
74778;BME280;63298;53.164;8.610;2023-03-23T01:17:45;100278.19;;;11.91;83.18
74778;BME280;63298;53.164;8.610;2023-03-23T01:20:13;100269.59;;;11.87;83.12
74778;BME280;63298;53.164;8.610;2023-03-23T01:22:39;100264.97;;;11.93;82.70
74778;BME280;63298;53.164;8.610;2023-03-23T01:25:05;100254.34;;;11.85;82.98
74778;BME280;63298;53.164;8.610;2023-03-23T01:27:31;100255.00;;;11.92;82.76
74778;BME280;63298;53.164;8.610;2023-03-23T01:29:57;100267.19;;;11.96;82.59
74778;BME280;63298;53.164;8.610;2023-03-23T01:32:22;100261.41;;;11.97;82.83
74778;BME280;63298;53.164;8.610;2023-03-23T01:34:47;100251.94;;;11.88;82.70
74778;BME280;63298;53.164;8.610;2023-03-23T01:37:13;100250.50;;;11.86;82.93
74778;BME280;63298;53.164;8.610;2023-03-23T01:39:38;100248.31;;;11.88;83.04
74778;BME280;63298;53.164;8.610;2023-03-23T01:42:04;100233.63;;;11.82;83.23
74778;BME280;63298;53.164;8.610;2023-03-23T01:46:54;100262.19;;;11.93;83.17
74778;BME280;63298;53.164;8.610;2023-03-23T01:49:30;100264.38;;;11.91;84.33
74778;BME280;63298;53.164;8.610;2023-03-23T01:52:08;100263.81;;;11.89;83.58
74778;BME280;63298;53.164;8.610;2023-03-23T01:54:37;100244.97;;;11.86;83.43
74778;BME280;63298;53.164;8.610;2023-03-23T01:59:32;100258.34;;;11.94;83.29
74778;BME280;63298;53.164;8.610;2023-03-23T02:01:59;100242.50;;;11.89;83.23
74778;BME280;63298;53.164;8.610;2023-03-23T02:04:25;100248.63;;;11.91;83.50
74778;BME280;63298;53.164;8.610;2023-03-23T02:06:54;100240.28;;;11.86;83.18
74778;BME280;63298;53.164;8.610;2023-03-23T02:09:19;100232.88;;;11.92;83.75
74778;BME280;63298;53.164;8.610;2023-03-23T02:11:46;100233.97;;;11.91;83.48
74778;BME280;63298;53.164;8.610;2023-03-23T02:14:12;100224.00;;;11.90;83.19
74778;BME280;63298;53.164;8.610;2023-03-23T02:22:16;100185.50;;;11.78;83.18
74778;BME280;63298;53.164;8.610;2023-03-23T02:24:54;100190.53;;;11.86;83.61
74778;BME280;63298;53.164;8.610;2023-03-23T02:38:39;100175.44;;;11.94;82.80
74778;BME280;63298;53.164;8.610;2023-03-23T02:41:08;100183.72;;;11.94;82.89
74778;BME280;63298;53.164;8.610;2023-03-23T02:43:43;100172.28;;;11.85;83.13
74778;BME280;63298;53.164;8.610;2023-03-23T02:46:10;100174.50;;;11.83;82.72
74778;BME280;63298;53.164;8.610;2023-03-23T02:48:38;100183.97;;;11.92;82.69
74778;BME280;63298;53.164;8.610;2023-03-23T02:51:08;100166.75;;;11.85;83.28
74778;BME280;63298;53.164;8.610;2023-03-23T02:53:37;100189.44;;;11.87;83.49
74778;BME280;63298;53.164;8.610;2023-03-23T02:56:06;100137.72;;;11.83;82.95
74778;BME280;63298;53.164;8.610;2023-03-23T02:58:33;100159.34;;;11.91;83.14
74778;BME280;63298;53.164;8.610;2023-03-23T03:00:58;100152.16;;;11.90;82.73
74778;BME280;63298;53.164;8.610;2023-03-23T03:03:29;100155.97;;;11.84;83.43
74778;BME280;63298;53.164;8.610;2023-03-23T03:07:17;100158.75;;;11.84;83.29
74778;BME280;63298;53.164;8.610;2023-03-23T03:12:05;100144.97;;;11.89;82.62
74778;BME280;63298;53.164;8.610;2023-03-23T03:14:41;100133.50;;;11.75;82.75
74778;BME280;63298;53.164;8.610;2023-03-23T03:17:24;100173.06;;;11.81;83.82
74778;BME280;63298;53.164;8.610;2023-03-23T03:19:54;100134.53;;;11.69;82.83
74778;BME280;63298;53.164;8.610;2023-03-23T03:22:21;100141.56;;;11.82;82.69
74778;BME280;63298;53.164;8.610;2023-03-23T03:24:50;100151.59;;;11.88;82.69
74778;BME280;63298;53.164;8.610;2023-03-23T03:27:18;100122.94;;;11.72;82.70
74778;BME280;63298;53.164;8.610;2023-03-23T03:29:47;100137.72;;;11.83;83.65
74778;BME280;63298;53.164;8.610;2023-03-23T03:32:18;100132.72;;;11.80;83.03
74778;BME280;63298;53.164;8.610;2023-03-23T03:34:45;100133.28;;;11.82;82.98
74778;BME280;63298;53.164;8.610;2023-03-23T03:37:11;100135.47;;;11.80;83.10
74778;BME280;63298;53.164;8.610;2023-03-23T03:39:37;100108.78;;;11.63;83.17
74778;BME280;63298;53.164;8.610;2023-03-23T03:42:03;100128.59;;;11.82;82.41
74778;BME280;63298;53.164;8.610;2023-03-23T03:44:29;100142.41;;;11.82;82.35
74778;BME280;63298;53.164;8.610;2023-03-23T03:46:54;100127.97;;;11.75;82.58
74778;BME280;63298;53.164;8.610;2023-03-23T03:49:20;100132.19;;;11.83;82.74
74778;BME280;63298;53.164;8.610;2023-03-23T03:51:45;100138.81;;;11.82;82.40
74778;BME280;63298;53.164;8.610;2023-03-23T03:54:11;100125.22;;;11.75;82.45
74778;BME280;63298;53.164;8.610;2023-03-23T03:56:37;100113.25;;;11.69;82.06
74778;BME280;63298;53.164;8.610;2023-03-23T03:59:03;100131.84;;;11.74;82.22
74778;BME280;63298;53.164;8.610;2023-03-23T04:01:28;100133.81;;;11.79;82.91
74778;BME280;63298;53.164;8.610;2023-03-23T04:03:54;100122.09;;;11.72;82.52
74778;BME280;63298;53.164;8.610;2023-03-23T04:06:19;100116.38;;;11.73;82.24
74778;BME280;63298;53.164;8.610;2023-03-23T04:08:45;100119.13;;;11.73;82.42
74778;BME280;63298;53.164;8.610;2023-03-23T04:11:12;100148.50;;;11.84;82.44
74778;BME280;63298;53.164;8.610;2023-03-23T04:13:38;100147.94;;;11.82;82.13
74778;BME280;63298;53.164;8.610;2023-03-23T04:16:05;100111.06;;;11.72;82.68
74778;BME280;63298;53.164;8.610;2023-03-23T04:18:30;100129.38;;;11.78;82.23
74778;BME280;63298;53.164;8.610;2023-03-23T04:20:56;100136.84;;;11.77;82.59
74778;BME280;63298;53.164;8.610;2023-03-23T04:23:21;100140.44;;;11.78;83.07
74778;BME280;63298;53.164;8.610;2023-03-23T04:25:48;100132.16;;;11.78;82.36
74778;BME280;63298;53.164;8.610;2023-03-23T04:28:15;100143.50;;;11.81;82.77
74778;BME280;63298;53.164;8.610;2023-03-23T04:30:41;100105.22;;;11.68;82.34
74778;BME280;63298;53.164;8.610;2023-03-23T04:33:06;100134.91;;;11.78;82.37
74778;BME280;63298;53.164;8.610;2023-03-23T04:35:32;100125.53;;;11.79;82.03
74778;BME280;63298;53.164;8.610;2023-03-23T04:37:57;100103.31;;;11.68;82.19
74778;BME280;63298;53.164;8.610;2023-03-23T04:40:23;100129.94;;;11.80;82.31
74778;BME280;63298;53.164;8.610;2023-03-23T04:42:49;100109.91;;;11.67;82.35
74778;BME280;63298;53.164;8.610;2023-03-23T04:45:17;100114.06;;;11.70;82.20
74778;BME280;63298;53.164;8.610;2023-03-23T04:47:42;100117.81;;;11.81;82.32
74778;BME280;63298;53.164;8.610;2023-03-23T04:50:10;100092.81;;;11.70;82.04
74778;BME280;63298;53.164;8.610;2023-03-23T04:52:37;100118.63;;;11.81;81.69
74778;BME280;63298;53.164;8.610;2023-03-23T04:55:02;100113.66;;;11.78;81.86
74778;BME280;63298;53.164;8.610;2023-03-23T04:57:28;100120.56;;;11.81;81.80
74778;BME280;63298;53.164;8.610;2023-03-23T04:59:53;100115.53;;;11.73;81.81
74778;BME280;63298;53.164;8.610;2023-03-23T05:02:18;100121.34;;;11.76;81.89
74778;BME280;63298;53.164;8.610;2023-03-23T05:04:44;100123.88;;;11.78;82.46
74778;BME280;63298;53.164;8.610;2023-03-23T05:07:11;100120.56;;;11.81;81.46
74778;BME280;63298;53.164;8.610;2023-03-23T05:09:36;100119.19;;;11.78;81.90
74778;BME280;63298;53.164;8.610;2023-03-23T05:12:09;100112.16;;;11.70;82.04
74778;BME280;63298;53.164;8.610;2023-03-23T05:14:35;100118.38;;;11.83;81.65
74778;BME280;63298;53.164;8.610;2023-03-23T05:17:00;100092.75;;;11.65;81.74
74778;BME280;63298;53.164;8.610;2023-03-23T05:19:26;100125.59;;;11.84;81.44
74778;BME280;63298;53.164;8.610;2023-03-23T05:21:51;100117.84;;;11.86;81.30
74778;BME280;63298;53.164;8.610;2023-03-23T05:24:17;100106.19;;;11.79;81.62
74778;BME280;63298;53.164;8.610;2023-03-23T05:26:42;100106.75;;;11.81;81.30
74778;BME280;63298;53.164;8.610;2023-03-23T05:29:07;100104.81;;;11.81;81.48
74778;BME280;63298;53.164;8.610;2023-03-23T05:31:33;100105.06;;;11.80;81.11
74778;BME280;63298;53.164;8.610;2023-03-23T05:33:59;100102.59;;;11.78;81.11
74778;BME280;63298;53.164;8.610;2023-03-23T05:36:24;100102.59;;;11.78;80.96
74778;BME280;63298;53.164;8.610;2023-03-23T05:38:53;100112.84;;;11.83;80.95
74778;BME280;63298;53.164;8.610;2023-03-23T05:41:21;100096.38;;;11.66;81.67
74778;BME280;63298;53.164;8.610;2023-03-23T05:43:46;100103.38;;;11.74;81.53
74778;BME280;63298;53.164;8.610;2023-03-23T05:46:12;100110.84;;;11.73;81.40
74778;BME280;63298;53.164;8.610;2023-03-23T05:48:38;100110.84;;;11.73;81.20
74778;BME280;63298;53.164;8.610;2023-03-23T05:51:07;100102.78;;;11.72;81.27
74778;BME280;63298;53.164;8.610;2023-03-23T05:53:33;100101.09;;;11.70;81.19
74778;BME280;63298;53.164;8.610;2023-03-23T05:55:59;100120.19;;;11.72;81.33
74778;BME280;63298;53.164;8.610;2023-03-23T05:58:25;100094.94;;;11.58;81.25
74778;BME280;63298;53.164;8.610;2023-03-23T06:00:50;100108.00;;;11.68;81.42
74778;BME280;63298;53.164;8.610;2023-03-23T06:03:16;100098.03;;;11.67;81.19
74778;BME280;63298;53.164;8.610;2023-03-23T06:05:45;100093.00;;;11.59;81.40
74778;BME280;63298;53.164;8.610;2023-03-23T06:08:11;100115.53;;;11.73;80.81
74778;BME280;63298;53.164;8.610;2023-03-23T06:10:36;100106.03;;;11.63;81.34
74778;BME280;63298;53.164;8.610;2023-03-23T06:13:03;100123.72;;;11.67;81.25
74778;BME280;63298;53.164;8.610;2023-03-23T06:15:29;100116.75;;;11.60;81.68
74778;BME280;63298;53.164;8.610;2023-03-23T06:17:54;100118.22;;;11.67;81.16
74778;BME280;63298;53.164;8.610;2023-03-23T06:20:19;100131.56;;;11.76;81.60
74778;BME280;63298;53.164;8.610;2023-03-23T06:22:45;100108.06;;;11.73;81.28
74778;BME280;63298;53.164;8.610;2023-03-23T06:25:10;100108.38;;;11.77;81.71
74778;BME280;63298;53.164;8.610;2023-03-23T06:27:35;100122.78;;;11.79;81.15
74778;BME280;63298;53.164;8.610;2023-03-23T06:30:02;100132.75;;;11.85;81.27
74778;BME280;63298;53.164;8.610;2023-03-23T06:32:29;100137.25;;;11.91;81.81
74778;BME280;63298;53.164;8.610;2023-03-23T06:34:55;100121.44;;;11.86;81.70
74778;BME280;63298;53.164;8.610;2023-03-23T06:37:21;100133.97;;;11.99;81.32
74778;BME280;63298;53.164;8.610;2023-03-23T06:39:46;100129.56;;;11.98;81.08
74778;BME280;63298;53.164;8.610;2023-03-23T06:42:19;100141.22;;;12.05;81.09
74778;BME280;63298;53.164;8.610;2023-03-23T06:44:45;100150.66;;;12.09;80.97
74778;BME280;63298;53.164;8.610;2023-03-23T06:47:10;100149.84;;;12.08;80.93
74778;BME280;63298;53.164;8.610;2023-03-23T06:49:35;100150.41;;;12.10;80.96
74778;BME280;63298;53.164;8.610;2023-03-23T06:52:01;100151.81;;;12.13;80.48
74778;BME280;63298;53.164;8.610;2023-03-23T06:54:26;100159.00;;;12.14;80.73
74778;BME280;63298;53.164;8.610;2023-03-23T06:56:51;100175.38;;;12.21;81.09
74778;BME280;63298;53.164;8.610;2023-03-23T06:59:17;100163.44;;;12.15;81.33
74778;BME280;63298;53.164;8.610;2023-03-23T07:01:42;100171.50;;;12.22;81.27
74778;BME280;63298;53.164;8.610;2023-03-23T07:04:07;100156.97;;;12.04;81.51
74778;BME280;63298;53.164;8.610;2023-03-23T07:06:33;100148.88;;;11.93;82.23
74778;BME280;63298;53.164;8.610;2023-03-23T07:08:58;100192.66;;;12.06;81.56
74778;BME280;63298;53.164;8.610;2023-03-23T07:11:24;100169.84;;;11.89;82.79
74778;BME280;63298;53.164;8.610;2023-03-23T07:13:49;100205.78;;;11.89;83.09
74778;BME280;63298;53.164;8.610;2023-03-23T07:16:16;100216.19;;;11.82;81.97
74778;BME280;63298;53.164;8.610;2023-03-23T07:18:41;100220.75;;;11.71;81.54
74778;BME280;63298;53.164;8.610;2023-03-23T07:21:06;100203.22;;;11.60;81.52
74778;BME280;63298;53.164;8.610;2023-03-23T07:23:32;100203.09;;;11.50;82.11
74778;BME280;63298;53.164;8.610;2023-03-23T07:25:57;100225.66;;;11.64;82.50
74778;BME280;63298;53.164;8.610;2023-03-23T07:28:23;100234.00;;;11.69;82.44
74778;BME280;63298;53.164;8.610;2023-03-23T07:30:48;100199.00;;;11.53;81.56
74778;BME280;63298;53.164;8.610;2023-03-23T07:33:13;100203.31;;;11.44;81.98
74778;BME280;63298;53.164;8.610;2023-03-23T07:35:39;100208.38;;;11.52;82.01
74778;BME280;63298;53.164;8.610;2023-03-23T07:38:05;100195.81;;;11.39;81.27
74778;BME280;63298;53.164;8.610;2023-03-23T07:40:31;100207.28;;;11.53;81.56
74778;BME280;63298;53.164;8.610;2023-03-23T07:42:57;100205.88;;;11.50;81.48
74778;BME280;63298;53.164;8.610;2023-03-23T07:45:23;100218.41;;;11.58;80.79
74778;BME280;63298;53.164;8.610;2023-03-23T07:47:49;100190.66;;;11.48;81.16
74778;BME280;63298;53.164;8.610;2023-03-23T07:50:14;100203.09;;;11.50;80.79
74778;BME280;63298;53.164;8.610;2023-03-23T07:52:40;100197.25;;;11.47;80.59
74778;BME280;63298;53.164;8.610;2023-03-23T07:55:07;100202.78;;;11.47;80.35
74778;BME280;63298;53.164;8.610;2023-03-23T07:57:33;100203.94;;;11.51;80.67
74778;BME280;63298;53.164;8.610;2023-03-23T07:59:58;100231.50;;;11.67;80.71
74778;BME280;63298;53.164;8.610;2023-03-23T08:02:24;100225.59;;;11.59;80.54
74778;BME280;63298;53.164;8.610;2023-03-23T08:04:50;100236.47;;;11.70;80.78
74778;BME280;63298;53.164;8.610;2023-03-23T08:07:17;100247.06;;;11.74;80.56
74778;BME280;63298;53.164;8.610;2023-03-23T08:09:45;100226.88;;;11.51;80.68
74778;BME280;63298;53.164;8.610;2023-03-23T08:12:11;100250.72;;;11.57;80.89
74778;BME280;63298;53.164;8.610;2023-03-23T08:14:36;100241.63;;;11.62;80.91
74778;BME280;63298;53.164;8.610;2023-03-23T08:17:02;100241.38;;;11.63;80.86
74778;BME280;63298;53.164;8.610;2023-03-23T08:19:27;100270.38;;;11.83;81.06
74778;BME280;63298;53.164;8.610;2023-03-23T08:21:53;100226.47;;;11.64;80.85
74778;BME280;63298;53.164;8.610;2023-03-23T08:24:18;100242.00;;;11.70;81.37
74778;BME280;63298;53.164;8.610;2023-03-23T08:26:46;100261.88;;;11.89;81.78
74778;BME280;63298;53.164;8.610;2023-03-23T08:29:12;100256.72;;;11.98;80.99
74778;BME280;63298;53.164;8.610;2023-03-23T08:31:38;100268.38;;;12.05;80.97
74778;BME280;63298;53.164;8.610;2023-03-23T08:34:04;100269.53;;;12.09;81.07
74778;BME280;63298;53.164;8.610;2023-03-23T08:36:32;100264.34;;;12.13;80.98
74778;BME280;63298;53.164;8.610;2023-03-23T08:38:57;100256.44;;;11.99;81.20
74778;BME280;63298;53.164;8.610;2023-03-23T08:41:25;100282.91;;;12.17;81.00
74778;BME280;63298;53.164;8.610;2023-03-23T08:43:51;100288.16;;;12.19;81.00
74778;BME280;63298;53.164;8.610;2023-03-23T08:46:16;100270.72;;;12.13;80.85
74778;BME280;63298;53.164;8.610;2023-03-23T08:48:41;100281.28;;;12.21;81.16
74778;BME280;63298;53.164;8.610;2023-03-23T08:51:07;100255.72;;;12.09;80.96
74778;BME280;63298;53.164;8.610;2023-03-23T08:53:32;100260.19;;;12.15;80.71
74778;BME280;63298;53.164;8.610;2023-03-23T08:56:10;100270.91;;;12.33;80.71
74778;BME280;63298;53.164;8.610;2023-03-23T08:58:38;100268.47;;;12.42;80.72
74778;BME280;63298;53.164;8.610;2023-03-23T09:01:06;100268.81;;;12.50;80.17
74778;BME280;63298;53.164;8.610;2023-03-23T09:03:32;100279.34;;;12.53;79.96
74778;BME280;63298;53.164;8.610;2023-03-23T09:05:59;100277.13;;;12.50;80.05
74778;BME280;63298;53.164;8.610;2023-03-23T09:08:26;100276.06;;;12.57;79.87
74778;BME280;63298;53.164;8.610;2023-03-23T09:10:51;100268.28;;;12.53;79.91
74778;BME280;63298;53.164;8.610;2023-03-23T09:13:16;100273.59;;;12.60;80.00
74778;BME280;63298;53.164;8.610;2023-03-23T09:15:42;100286.13;;;12.68;79.70
74778;BME280;63298;53.164;8.610;2023-03-23T09:18:07;100295.00;;;12.70;79.87
74778;BME280;63298;53.164;8.610;2023-03-23T09:20:32;100268.38;;;12.64;79.55
74778;BME280;63298;53.164;8.610;2023-03-23T09:22:58;100271.22;;;12.74;79.49
74778;BME280;63298;53.164;8.610;2023-03-23T09:25:26;100291.75;;;12.83;79.39
74778;BME280;63298;53.164;8.610;2023-03-23T09:27:55;100296.53;;;12.87;79.13
74778;BME280;63298;53.164;8.610;2023-03-23T09:30:20;100303.19;;;12.91;79.39
74778;BME280;63298;53.164;8.610;2023-03-23T09:32:46;100306.03;;;13.02;79.63
74778;BME280;63298;53.164;8.610;2023-03-23T09:35:12;100296.34;;;13.04;79.18
74778;BME280;63298;53.164;8.610;2023-03-23T09:37:38;100301.38;;;13.07;79.46
74778;BME280;63298;53.164;8.610;2023-03-23T09:40:06;100288.41;;;13.13;78.95
74778;BME280;63298;53.164;8.610;2023-03-23T09:43:24;100294.56;;;13.20;79.49
74778;BME280;63298;53.164;8.610;2023-03-23T09:48:38;100307.06;;;13.27;78.62
74778;BME280;63298;53.164;8.610;2023-03-23T09:54:34;100320.63;;;13.24;78.86
74778;BME280;63298;53.164;8.610;2023-03-23T09:57:02;100319.84;;;13.33;78.75
74778;BME280;63298;53.164;8.610;2023-03-23T09:59:36;100301.84;;;13.31;78.02
74778;BME280;63298;53.164;8.610;2023-03-23T10:02:29;100314.25;;;13.28;78.25
74778;BME280;63298;53.164;8.610;2023-03-23T10:07:47;100334.53;;;13.34;77.81
74778;BME280;63298;53.164;8.610;2023-03-23T10:10:13;100317.69;;;13.40;77.80
74778;BME280;63298;53.164;8.610;2023-03-23T10:12:48;100341.28;;;13.53;77.09
74778;BME280;63298;53.164;8.610;2023-03-23T10:15:17;100344.34;;;13.57;77.32
74778;BME280;63298;53.164;8.610;2023-03-23T10:18:36;100353.22;;;13.54;76.28
74778;BME280;63298;53.164;8.610;2023-03-23T10:20:57;100333.22;;;13.47;77.05
74778;BME280;63298;53.164;8.610;2023-03-23T10:26:29;100353.47;;;13.52;77.15
74778;BME280;63298;53.164;8.610;2023-03-23T10:29:08;100351.00;;;13.51;76.76
74778;BME280;63298;53.164;8.610;2023-03-23T10:31:38;100366.81;;;13.55;76.85
74778;BME280;63298;53.164;8.610;2023-03-23T10:34:10;100364.25;;;13.49;76.56
74778;BME280;63298;53.164;8.610;2023-03-23T10:36:48;100344.03;;;13.48;76.03
74778;BME280;63298;53.164;8.610;2023-03-23T10:39:21;100326.03;;;13.46;76.50
74778;BME280;63298;53.164;8.610;2023-03-23T10:41:47;100339.63;;;13.57;76.50
74778;BME280;63298;53.164;8.610;2023-03-23T10:49:08;100358.47;;;13.50;75.93
74778;BME280;63298;53.164;8.610;2023-03-23T10:51:37;100357.03;;;13.48;75.75
74778;BME280;63298;53.164;8.610;2023-03-23T10:54:05;100327.16;;;13.50;75.92
74778;BME280;63298;53.164;8.610;2023-03-23T10:56:42;100341.09;;;13.65;74.81
74778;BME280;63298;53.164;8.610;2023-03-23T10:59:30;100329.44;;;13.68;75.40
74778;BME280;63298;53.164;8.610;2023-03-23T11:02:00;100345.59;;;13.81;75.61
74778;BME280;63298;53.164;8.610;2023-03-23T11:04:27;100340.88;;;13.81;74.51
74778;BME280;63298;53.164;8.610;2023-03-23T11:06:57;100349.47;;;13.80;74.38
74778;BME280;63298;53.164;8.610;2023-03-23T11:09:37;100359.72;;;13.79;74.28
74778;BME280;63298;53.164;8.610;2023-03-23T11:12:04;100344.19;;;13.78;74.58
74778;BME280;63298;53.164;8.610;2023-03-23T11:14:32;100318.97;;;13.75;74.62
74778;BME280;63298;53.164;8.610;2023-03-23T11:17:02;100331.44;;;13.82;73.98
74778;BME280;63298;53.164;8.610;2023-03-23T11:19:34;100344.50;;;13.87;74.20
74778;BME280;63298;53.164;8.610;2023-03-23T11:22:17;100363.38;;;13.85;72.67
74778;BME280;63298;53.164;8.610;2023-03-23T11:24:47;100358.91;;;13.84;74.19
74778;BME280;63298;53.164;8.610;2023-03-23T11:27:14;100373.91;;;13.88;74.33
74778;BME280;63298;53.164;8.610;2023-03-23T11:32:15;100380.03;;;13.95;74.25
74778;BME280;63298;53.164;8.610;2023-03-23T11:34:48;100369.78;;;13.96;73.48
74778;BME280;63298;53.164;8.610;2023-03-23T11:39:48;100344.09;;;14.25;73.74
74778;BME280;63298;53.164;8.610;2023-03-23T11:42:25;100364.72;;;14.50;73.11
74778;BME280;63298;53.164;8.610;2023-03-23T11:44:51;100355.56;;;14.59;71.35
74778;BME280;63298;53.164;8.610;2023-03-23T11:47:27;100352.78;;;14.59;70.39
74778;BME280;63298;53.164;8.610;2023-03-23T11:50:12;100346.41;;;14.69;70.42
74778;BME280;63298;53.164;8.610;2023-03-23T11:52:47;100350.56;;;14.72;70.01
74778;BME280;63298;53.164;8.610;2023-03-23T11:58:11;100331.13;;;14.92;68.93
74778;BME280;63298;53.164;8.610;2023-03-23T12:00:55;100345.28;;;15.10;68.17
74778;BME280;63298;53.164;8.610;2023-03-23T12:06:02;100338.84;;;15.40;67.37
74778;BME280;63298;53.164;8.610;2023-03-23T12:08:36;100338.31;;;15.59;68.14
74778;BME280;63298;53.164;8.610;2023-03-23T12:19:34;100318.59;;;16.09;65.56
74778;BME280;63298;53.164;8.610;2023-03-23T12:35:28;100341.03;;;16.33;65.26
74778;BME280;63298;53.164;8.610;2023-03-23T12:48:37;100349.09;;;15.70;65.57
74778;BME280;63298;53.164;8.610;2023-03-23T12:54:02;100354.69;;;15.45;63.51
74778;BME280;63298;53.164;8.610;2023-03-23T12:56:37;100361.06;;;15.50;64.32
74778;BME280;63298;53.164;8.610;2023-03-23T13:01:59;100343.81;;;15.74;63.13
74778;BME280;63298;53.164;8.610;2023-03-23T13:04:31;100348.78;;;15.82;64.17
74778;BME280;63298;53.164;8.610;2023-03-23T13:06:59;100330.97;;;15.88;64.52
74778;BME280;63298;53.164;8.610;2023-03-23T13:12:31;100321.09;;;16.16;63.44
74778;BME280;63298;53.164;8.610;2023-03-23T13:15:20;100318.94;;;16.03;60.59
74778;BME280;63298;53.164;8.610;2023-03-23T13:23:21;100346.47;;;15.99;61.18
74778;BME280;63298;53.164;8.610;2023-03-23T13:25:56;100338.72;;;15.96;61.64
74778;BME280;63298;53.164;8.610;2023-03-23T13:28:27;100328.44;;;15.91;62.02
74778;BME280;63298;53.164;8.610;2023-03-23T13:33:23;100337.88;;;15.95;62.17
74778;BME280;63298;53.164;8.610;2023-03-23T13:35:50;100334.56;;;15.93;62.44
74778;BME280;63298;53.164;8.610;2023-03-23T13:38:20;100342.31;;;16.02;59.91
74778;BME280;63298;53.164;8.610;2023-03-23T13:40:47;100336.09;;;16.15;62.07
74778;BME280;63298;53.164;8.610;2023-03-23T13:43:12;100344.44;;;16.20;61.52
74778;BME280;63298;53.164;8.610;2023-03-23T13:45:47;100343.94;;;16.08;61.33
74778;BME280;63298;53.164;8.610;2023-03-23T13:53:22;100350.16;;;15.79;62.71
74778;BME280;63298;53.164;8.610;2023-03-23T13:55:50;100342.44;;;15.66;62.35
74778;BME280;63298;53.164;8.610;2023-03-23T13:58:24;100376.38;;;15.63;62.98
74778;BME280;63298;53.164;8.610;2023-03-23T14:01:14;100354.16;;;15.48;63.09
74778;BME280;63298;53.164;8.610;2023-03-23T14:03:42;100371.41;;;15.25;61.06
74778;BME280;63298;53.164;8.610;2023-03-23T14:06:15;100346.97;;;15.06;61.03
74778;BME280;63298;53.164;8.610;2023-03-23T14:08:44;100361.97;;;14.95;60.68
74778;BME280;63298;53.164;8.610;2023-03-23T14:11:16;100360.31;;;14.84;60.13
74778;BME280;63298;53.164;8.610;2023-03-23T14:14:06;100362.78;;;15.01;59.53
74778;BME280;63298;53.164;8.610;2023-03-23T14:16:41;100338.88;;;15.15;60.44
74778;BME280;63298;53.164;8.610;2023-03-23T14:21:48;100343.03;;;15.48;61.59
74778;BME280;63298;53.164;8.610;2023-03-23T14:24:40;100353.28;;;15.68;59.79
74778;BME280;63298;53.164;8.610;2023-03-23T14:29:30;100362.66;;;15.92;60.96
74778;BME280;63298;53.164;8.610;2023-03-23T14:31:57;100357.06;;;15.97;60.40
74778;BME280;63298;53.164;8.610;2023-03-23T14:34:25;100360.34;;;16.09;60.18
74778;BME280;63298;53.164;8.610;2023-03-23T14:36:54;100354.75;;;16.14;59.55
74778;BME280;63298;53.164;8.610;2023-03-23T14:39:26;100358.88;;;16.27;60.28
74778;BME280;63298;53.164;8.610;2023-03-23T14:41:53;100362.16;;;16.34;60.40
74778;BME280;63298;53.164;8.610;2023-03-23T14:44:30;100365.44;;;16.46;59.65
74778;BME280;63298;53.164;8.610;2023-03-23T14:46:58;100359.84;;;16.51;59.85
74778;BME280;63298;53.164;8.610;2023-03-23T14:49:30;100375.13;;;16.59;60.43